createdAt,value
2019-05-18T00:01:43.019Z,99183.60
2019-05-18T00:04:10.467Z,99179.55
2019-05-18T00:06:37.849Z,99182.99
2019-05-18T00:09:06.250Z,99182.27
2019-05-18T00:11:33.773Z,99189.59
2019-05-18T00:14:01.236Z,99179.21
2019-05-18T00:16:28.703Z,99177.88
2019-05-18T00:18:56.115Z,99176.84
2019-05-18T00:21:23.393Z,99174.62
2019-05-18T00:23:50.775Z,99177.28
2019-05-18T00:26:18.166Z,99183.89
2019-05-18T00:28:45.510Z,99177.28
2019-05-18T00:31:12.983Z,99181.33
2019-05-18T00:33:40.374Z,99172.34
2019-05-18T00:36:07.887Z,99171.84
2019-05-18T00:38:35.273Z,99167.17
2019-05-18T00:41:02.608Z,99162.56
2019-05-18T00:43:30.314Z,99165.17
2019-05-18T00:45:57.570Z,99168.05
2019-05-18T00:48:24.876Z,99165.46
2019-05-18T00:50:52.125Z,99166.62
2019-05-18T00:53:19.482Z,99167.30
2019-05-18T00:55:46.717Z,99162.48
2019-05-18T00:58:14.014Z,99165.42
2019-05-18T01:00:41.295Z,99161.23
2019-05-18T01:03:08.586Z,99158.15
2019-05-18T01:05:38.024Z,99158.73
2019-05-18T01:08:05.211Z,99157.41
2019-05-18T01:10:32.715Z,99161.65
2019-05-18T01:13:00.180Z,99163.17
2019-05-18T01:15:27.606Z,99164.13
2019-05-18T01:17:57.727Z,99161.54
2019-05-18T01:20:24.247Z,99165.67
2019-05-18T01:22:52.263Z,99168.48
2019-05-18T01:25:19.802Z,99170.55
2019-05-18T01:27:47.092Z,99161.41
2019-05-18T01:30:16.073Z,99160.88
2019-05-18T01:32:43.571Z,99159.22
2019-05-18T01:35:11.358Z,99158.66
2019-05-18T01:37:39.040Z,99160.81
2019-05-18T01:40:06.526Z,99159.22
2019-05-18T01:42:33.872Z,99162.31
2019-05-18T01:45:15.831Z,99159.02
2019-05-18T01:47:30.851Z,99157.02
2019-05-18T01:49:58.370Z,99157.55
2019-05-18T01:52:25.633Z,99159.93
2019-05-18T01:54:52.904Z,99151.61
2019-05-18T01:57:20.160Z,99037.09
2019-05-18T01:59:47.396Z,99156.69
2019-05-18T02:02:14.776Z,99167.06
2019-05-18T02:04:42.065Z,99165.27
2019-05-18T02:07:09.325Z,99168.47
2019-05-18T02:09:36.620Z,99169.95
2019-05-18T02:12:04.190Z,99175.58
2019-05-18T02:14:31.444Z,99167.08
2019-05-18T02:16:58.801Z,99161.25
2019-05-18T02:19:26.063Z,99161.30
2019-05-18T02:21:53.324Z,99168.16
2019-05-18T02:24:20.601Z,99175.66
2019-05-18T02:26:48.034Z,99175.19
2019-05-18T02:29:15.408Z,99171.92
2019-05-18T02:31:42.972Z,99162.53
2019-05-18T02:34:10.239Z,99161.08
2019-05-18T02:36:37.699Z,99158.33
2019-05-18T02:39:06.400Z,99159.95
2019-05-18T02:41:33.788Z,99159.72
2019-05-18T02:44:01.279Z,99157.42
2019-05-18T02:46:28.557Z,99151.49
2019-05-18T02:48:55.913Z,99156.30
2019-05-18T02:51:23.166Z,99156.30
2019-05-18T02:53:50.479Z,99153.07
2019-05-18T02:56:17.704Z,99154.05
2019-05-18T02:58:44.997Z,99154.06
2019-05-18T03:01:12.265Z,99147.50
2019-05-18T03:03:39.512Z,99150.63
2019-05-18T03:06:06.848Z,99151.99
2019-05-18T03:08:34.108Z,99152.45
2019-05-18T03:11:01.334Z,99155.32
2019-05-18T03:13:28.777Z,99148.08
2019-05-18T03:15:56.042Z,99147.43
2019-05-18T03:18:23.328Z,99148.45
2019-05-18T03:20:50.614Z,99141.35
2019-05-18T03:23:17.911Z,99138.22
2019-05-18T03:25:45.177Z,99138.19
2019-05-18T03:28:12.460Z,99130.94
2019-05-18T03:30:39.697Z,99129.77
2019-05-18T03:33:06.962Z,99132.06
2019-05-18T03:35:34.251Z,99125.18
2019-05-18T03:38:01.552Z,99132.17
2019-05-18T03:40:28.837Z,99131.05
2019-05-18T03:42:56.074Z,99132.90
2019-05-18T03:45:23.385Z,99138.48
2019-05-18T03:47:50.635Z,99139.66
2019-05-18T03:50:17.946Z,99139.47
2019-05-18T03:52:45.231Z,99142.33
2019-05-18T03:55:12.460Z,99137.72
2019-05-18T03:57:39.748Z,99136.35
2019-05-18T04:00:07.468Z,99150.05
2019-05-18T04:02:34.751Z,99145.55
2019-05-18T04:05:02.080Z,99143.92
2019-05-18T04:07:29.475Z,99144.85
2019-05-18T04:09:56.763Z,99143.73
2019-05-18T04:12:24.040Z,99139.81
2019-05-18T04:14:51.352Z,99147.27
2019-05-18T04:17:18.623Z,99140.61
2019-05-18T04:19:47.455Z,99145.74
2019-05-18T04:22:15.083Z,99141.91
2019-05-18T04:24:42.391Z,99140.37
2019-05-18T04:27:09.769Z,99145.97
2019-05-18T04:29:37.082Z,99142.17
2019-05-18T04:32:04.303Z,99143.78
2019-05-18T04:34:31.588Z,99146.86
2019-05-18T04:36:58.973Z,99140.50
2019-05-18T04:39:26.234Z,99139.80
2019-05-18T04:41:53.559Z,99134.48
2019-05-18T04:44:20.809Z,99140.39
2019-05-18T04:46:48.195Z,99137.11
2019-05-18T04:49:15.404Z,99138.05
2019-05-18T04:51:42.685Z,99143.04
2019-05-18T04:54:10.037Z,99142.62
2019-05-18T04:56:37.411Z,99143.78
2019-05-18T04:59:07.036Z,99151.24
2019-05-18T05:01:34.486Z,99145.86
2019-05-18T05:04:02.833Z,99144.61
2019-05-18T05:06:30.363Z,99145.61
2019-05-18T05:08:57.773Z,99144.42
2019-05-18T05:11:25.022Z,99147.27
2019-05-18T05:13:52.302Z,99149.19
2019-05-18T05:16:21.002Z,99147.59
2019-05-18T05:18:48.262Z,99150.14
2019-05-18T05:21:15.577Z,99147.11
2019-05-18T05:23:42.951Z,99145.34
2019-05-18T05:26:10.272Z,99142.27
2019-05-18T05:28:37.636Z,99153.66
2019-05-18T05:31:04.861Z,99148.84
2019-05-18T05:33:32.128Z,99137.66
2019-05-18T05:35:59.387Z,99132.03
2019-05-18T05:38:26.710Z,99140.63
2019-05-18T05:40:54.003Z,99137.48
2019-05-18T05:43:21.286Z,99130.37
2019-05-18T05:45:48.546Z,99134.29
2019-05-18T05:48:15.856Z,99089.75
2019-05-18T05:50:43.237Z,99133.88
2019-05-18T05:53:10.500Z,99133.75
2019-05-18T05:55:37.869Z,99136.66
2019-05-18T05:58:05.303Z,99139.27
2019-05-18T06:00:32.667Z,99140.37
2019-05-18T06:03:00.147Z,99139.66
2019-05-18T06:05:27.730Z,99145.50
2019-05-18T06:07:55.358Z,99148.70
2019-05-18T06:10:22.781Z,99147.87
2019-05-18T06:12:51.161Z,99144.18
2019-05-18T06:15:18.692Z,99146.31
2019-05-18T06:17:45.954Z,99148.28
2019-05-18T06:20:13.356Z,99148.32
2019-05-18T06:22:40.686Z,99138.53
2019-05-18T06:25:08.995Z,99136.95
2019-05-18T06:27:37.434Z,99144.66
2019-05-18T06:30:05.496Z,99152.90
2019-05-18T06:32:33.066Z,99146.39
2019-05-18T06:35:00.412Z,99149.44
2019-05-18T06:37:30.335Z,99157.23
2019-05-18T06:39:57.707Z,99149.02
2019-05-18T06:42:25.040Z,99149.99
2019-05-18T06:44:52.344Z,99154.75
2019-05-18T06:47:19.570Z,99153.83
2019-05-18T06:49:51.041Z,99160.72
2019-05-18T06:52:19.070Z,99154.67
2019-05-18T06:54:46.449Z,99156.95
2019-05-18T06:57:14.882Z,99157.30
2019-05-18T06:59:42.180Z,99161.08
2019-05-18T07:02:09.503Z,99161.63
2019-05-18T07:04:36.807Z,99162.11
2019-05-18T07:07:04.212Z,99161.25
2019-05-18T07:09:31.496Z,99160.80
2019-05-18T07:11:58.818Z,99155.95
2019-05-18T07:14:26.334Z,99151.28
2019-05-18T07:16:53.604Z,99155.59
2019-05-18T07:19:20.980Z,99153.52
2019-05-18T07:21:48.308Z,99152.32
2019-05-18T07:24:15.619Z,99154.25
2019-05-18T07:26:43.120Z,99155.61
2019-05-18T07:29:10.506Z,99159.74
2019-05-18T07:31:37.847Z,99153.02
2019-05-18T07:34:05.312Z,99158.50
2019-05-18T07:36:32.732Z,99152.83
2019-05-18T07:39:00.074Z,99144.17
2019-05-18T07:41:27.430Z,99142.52
2019-05-18T07:43:54.774Z,99145.19
2019-05-18T07:46:22.095Z,99141.94
2019-05-18T07:48:49.575Z,99146.00
2019-05-18T07:51:17.024Z,99142.25
2019-05-18T07:53:44.402Z,99144.17
2019-05-18T07:56:11.690Z,99139.02
2019-05-18T07:58:38.951Z,99137.38
2019-05-18T08:01:06.330Z,99138.42
2019-05-18T08:03:33.593Z,99141.59
2019-05-18T08:06:00.850Z,99145.57
2019-05-18T08:08:28.150Z,99138.23
2019-05-18T08:10:55.386Z,99137.44
2019-05-18T08:13:22.693Z,99139.84
2019-05-18T08:15:49.923Z,99132.87
2019-05-18T08:18:17.211Z,99115.14
2019-05-18T08:20:44.470Z,99131.02
2019-05-18T08:23:11.843Z,99127.45
2019-05-18T08:25:39.086Z,99134.94
2019-05-18T08:28:06.488Z,99131.51
2019-05-18T08:30:33.814Z,99130.48
2019-05-18T08:33:01.116Z,99128.33
2019-05-18T08:35:28.436Z,99130.41
2019-05-18T08:37:55.732Z,99127.22
2019-05-18T08:40:22.997Z,99133.41
2019-05-18T08:42:50.397Z,99129.77
2019-05-18T08:45:17.608Z,99138.80
2019-05-18T08:47:44.898Z,99127.30
2019-05-18T08:50:12.428Z,99126.38
2019-05-18T08:52:39.798Z,99120.86
2019-05-18T08:55:07.125Z,99123.00
2019-05-18T08:57:35.404Z,99123.73
2019-05-18T09:00:02.718Z,99122.11
2019-05-18T09:02:31.203Z,99124.28
2019-05-18T09:04:58.432Z,99125.29
2019-05-18T09:07:25.686Z,99120.20
2019-05-18T09:09:52.938Z,99117.52
2019-05-18T09:12:20.247Z,99120.62
2019-05-18T09:14:47.623Z,99119.06
2019-05-18T09:17:14.948Z,99123.80
2019-05-18T09:19:42.186Z,99124.42
2019-05-18T09:22:22.447Z,99124.42
2019-05-18T09:24:38.787Z,99116.56
2019-05-18T09:27:06.109Z,99122.98
2019-05-18T09:29:33.468Z,99122.98
2019-05-18T09:32:00.789Z,99119.90
2019-05-18T09:34:28.066Z,99118.97
2019-05-18T09:36:55.361Z,99122.31
2019-05-18T09:39:22.695Z,99109.30
2019-05-18T09:41:50.102Z,99118.34
2019-05-18T09:44:17.361Z,99116.21
2019-05-18T09:46:44.652Z,99122.92
2019-05-18T09:49:13.056Z,99118.72
2019-05-18T09:51:40.333Z,99099.05
2019-05-18T09:54:07.702Z,99113.16
2019-05-18T09:56:34.997Z,99115.41
2019-05-18T09:59:02.402Z,99115.63
2019-05-18T10:01:29.692Z,99116.68
2019-05-18T10:03:56.963Z,99113.42
2019-05-18T10:06:24.174Z,99116.91
2019-05-18T10:08:51.450Z,99120.81
2019-05-18T10:11:18.742Z,99114.31
2019-05-18T10:13:46.125Z,99117.29
2019-05-18T10:16:13.485Z,99119.51
2019-05-18T10:18:40.839Z,99118.95
2019-05-18T10:21:08.049Z,99122.98
2019-05-18T10:23:35.290Z,99127.60
2019-05-18T10:26:03.614Z,99111.41
2019-05-18T10:28:31.142Z,99109.54
2019-05-18T10:30:58.416Z,99110.42
2019-05-18T10:33:25.725Z,99087.45
2019-05-18T10:35:53.000Z,99099.08
2019-05-18T10:38:20.524Z,99113.28
2019-05-18T10:40:48.007Z,99111.11
2019-05-18T10:43:15.533Z,99112.47
2019-05-18T10:45:45.100Z,99103.47
2019-05-18T10:48:12.258Z,99103.09
2019-05-18T10:50:39.587Z,99103.31
2019-05-18T10:53:08.208Z,99102.02
2019-05-18T10:55:35.675Z,99099.91
2019-05-18T10:58:04.113Z,99092.42
2019-05-18T11:00:31.795Z,99092.20
2019-05-18T11:02:59.186Z,99097.27
2019-05-18T11:05:26.409Z,99070.06
2019-05-18T11:07:53.659Z,99088.66
2019-05-18T11:10:21.219Z,99086.32
2019-05-18T11:12:48.463Z,99090.88
2019-05-18T11:15:15.834Z,99087.95
2019-05-18T11:17:43.140Z,99088.45
2019-05-18T11:20:11.012Z,99087.85
2019-05-18T11:22:38.264Z,99089.34
2019-05-18T11:25:05.879Z,99078.27
2019-05-18T11:27:33.623Z,99082.60
2019-05-18T11:30:00.964Z,99074.44
2019-05-18T11:32:28.407Z,99068.56
2019-05-18T11:34:55.768Z,99068.45
2019-05-18T11:37:23.031Z,99073.34
2019-05-18T11:39:50.300Z,99070.55
2019-05-18T11:42:17.565Z,99068.55
2019-05-18T11:44:44.801Z,99073.41
2019-05-18T11:47:14.739Z,99073.10
2019-05-18T11:49:42.057Z,99079.98
2019-05-18T11:52:09.330Z,99079.01
2019-05-18T11:54:36.590Z,99076.69
2019-05-18T11:57:03.889Z,99076.95
2019-05-18T11:59:32.135Z,99075.01
2019-05-18T12:01:59.433Z,99064.57
2019-05-18T12:04:26.774Z,99068.17
2019-05-18T12:06:54.228Z,99064.98
2019-05-18T12:09:21.513Z,99070.16
2019-05-18T12:11:48.836Z,99066.78
2019-05-18T12:14:16.145Z,99065.14
2019-05-18T12:16:43.395Z,99064.56
2019-05-18T12:19:10.960Z,99061.48
2019-05-18T12:21:38.226Z,99066.84
2019-05-18T12:24:14.591Z,99060.95
2019-05-18T12:26:35.013Z,99055.51
2019-05-18T12:29:02.291Z,99054.31
2019-05-18T12:31:29.553Z,99057.77
2019-05-18T12:33:56.895Z,99056.92
2019-05-18T12:36:24.137Z,99060.38
2019-05-18T12:38:51.434Z,99056.41
2019-05-18T12:41:20.646Z,99061.86
2019-05-18T12:43:48.119Z,99049.53
2019-05-18T12:46:15.554Z,99055.61
2019-05-18T12:48:42.882Z,99052.98
2019-05-18T12:51:10.292Z,99057.19
2019-05-18T12:53:37.534Z,99050.70
2019-05-18T12:56:04.822Z,99049.66
2019-05-18T12:58:32.047Z,99045.09
2019-05-18T13:00:59.261Z,99038.19
2019-05-18T13:03:26.589Z,99045.84
2019-05-18T13:05:53.841Z,99040.11
2019-05-18T13:08:21.098Z,99046.84
2019-05-18T13:10:48.409Z,99042.45
2019-05-18T13:13:16.705Z,99032.74
2019-05-18T13:15:44.136Z,99038.34
2019-05-18T13:18:12.490Z,99034.48
2019-05-18T13:20:39.765Z,99039.66
2019-05-18T13:23:07.030Z,99037.34
2019-05-18T13:25:34.314Z,99041.73
2019-05-18T13:28:01.685Z,99033.80
2019-05-18T13:30:30.305Z,99037.67
2019-05-18T13:32:57.876Z,99031.68
2019-05-18T13:35:25.316Z,99041.27
2019-05-18T13:37:52.676Z,99037.42
2019-05-18T13:40:20.302Z,99025.77
2019-05-18T13:42:47.600Z,99034.88
2019-05-18T13:45:15.287Z,99034.70
2019-05-18T13:47:42.713Z,99029.19
2019-05-18T13:50:10.147Z,99035.59
2019-05-18T13:52:37.547Z,99028.27
2019-05-18T13:55:05.354Z,99031.98
2019-05-18T13:57:32.676Z,99026.63
2019-05-18T13:59:59.927Z,99028.90
2019-05-18T14:02:27.257Z,99023.00
2019-05-18T14:04:54.692Z,99015.81
2019-05-18T14:07:22.017Z,99023.02
2019-05-18T14:09:49.339Z,99017.30
2019-05-18T14:12:16.623Z,99013.39
2019-05-18T14:14:43.863Z,99008.48
2019-05-18T14:17:11.094Z,99014.68
2019-05-18T14:19:38.350Z,99006.55
2019-05-18T14:22:05.594Z,99007.19
2019-05-18T14:24:32.886Z,99012.09
2019-05-18T14:27:00.139Z,99011.96
2019-05-18T14:29:27.425Z,99012.23
2019-05-18T14:31:54.672Z,99016.80
2019-05-18T14:34:22.612Z,99010.22
2019-05-18T14:36:49.977Z,99015.27
2019-05-18T14:39:17.632Z,99009.87
2019-05-18T14:41:45.205Z,99010.17
2019-05-18T14:44:12.707Z,99010.43
2019-05-18T14:46:40.134Z,99009.48
2019-05-18T14:49:07.406Z,99014.02
2019-05-18T14:51:34.659Z,99018.22
2019-05-18T14:54:02.175Z,99016.86
2019-05-18T14:56:29.540Z,99018.66
2019-05-18T14:58:56.774Z,99011.24
2019-05-18T15:01:24.024Z,99007.23
2019-05-18T15:03:52.376Z,99014.20
2019-05-18T15:06:19.692Z,99013.02
2019-05-18T15:08:46.917Z,99010.23
2019-05-18T15:11:14.183Z,99007.53
2019-05-18T15:13:41.725Z,99000.75
2019-05-18T15:16:08.979Z,98983.86
2019-05-18T15:18:36.261Z,99001.19
2019-05-18T15:21:03.507Z,99012.61
2019-05-18T15:23:30.737Z,99012.92
2019-05-18T15:25:58.113Z,99015.52
2019-05-18T15:28:25.512Z,99008.67
2019-05-18T15:30:52.969Z,99009.44
2019-05-18T15:33:20.306Z,99006.14
2019-05-18T15:35:47.836Z,99007.38
2019-05-18T15:38:15.472Z,99014.28
2019-05-18T15:40:42.866Z,99011.50
2019-05-18T15:43:10.180Z,99008.83
2019-05-18T15:45:37.668Z,99008.29
2019-05-18T15:48:04.947Z,99006.25
2019-05-18T15:50:32.459Z,99008.09
2019-05-18T15:53:01.395Z,99004.09
2019-05-18T15:55:28.756Z,99009.78
2019-05-18T15:57:56.402Z,99002.78
2019-05-18T16:00:24.439Z,99003.96
2019-05-18T16:02:52.189Z,98997.95
2019-05-18T16:05:19.513Z,98994.34
2019-05-18T16:07:46.944Z,99000.70
2019-05-18T16:10:15.003Z,99004.92
2019-05-18T16:12:42.394Z,98998.27
2019-05-18T16:15:10.053Z,98999.23
2019-05-18T16:17:39.818Z,98992.81
2019-05-18T16:20:07.184Z,98990.13
2019-05-18T16:22:34.572Z,99003.91
2019-05-18T16:25:02.851Z,98985.09
2019-05-18T16:27:31.992Z,99000.85
2019-05-18T16:30:00.521Z,99004.05
2019-05-18T16:32:27.798Z,99000.46
2019-05-18T16:34:55.635Z,99004.76
2019-05-18T16:37:22.964Z,99003.48
2019-05-18T16:39:50.576Z,99006.38
2019-05-18T16:42:18.124Z,99003.24
2019-05-18T16:44:45.569Z,99006.25
2019-05-18T16:47:13.000Z,98999.73
2019-05-18T16:49:40.549Z,99004.38
2019-05-18T16:52:07.813Z,99003.06
2019-05-18T16:54:35.136Z,99003.06
2019-05-18T16:57:02.409Z,98998.98
2019-05-18T16:59:30.340Z,99007.63
2019-05-18T17:01:58.464Z,98999.31
2019-05-18T17:04:27.564Z,99000.45
2019-05-18T17:06:55.400Z,99007.24
2019-05-18T17:09:23.438Z,99004.18
2019-05-18T17:11:50.983Z,99003.23
2019-05-18T17:14:18.407Z,98995.27
2019-05-18T17:16:45.779Z,99004.13
2019-05-18T17:19:13.147Z,99012.06
2019-05-18T17:21:40.521Z,99014.64
2019-05-18T17:24:08.907Z,99014.64
2019-05-18T17:26:51.492Z,99018.58
2019-05-18T17:29:05.613Z,99018.58
2019-05-18T17:31:33.025Z,99026.89
2019-05-18T17:34:00.328Z,99026.42
2019-05-18T17:36:28.169Z,99022.61
2019-05-18T17:38:55.523Z,99027.84
2019-05-18T17:41:22.800Z,99026.61
2019-05-18T17:43:53.190Z,99026.11
2019-05-18T17:46:20.493Z,99027.45
2019-05-18T17:48:47.917Z,99034.19
2019-05-18T17:51:15.414Z,99036.61
2019-05-18T17:53:42.822Z,99038.33
2019-05-18T17:56:10.094Z,99033.37
2019-05-18T17:58:37.655Z,99037.91
2019-05-18T18:01:05.058Z,99038.86
2019-05-18T18:03:32.364Z,99040.79
2019-05-18T18:05:59.751Z,99041.91
2019-05-18T18:08:27.129Z,99047.98
2019-05-18T18:10:54.504Z,99046.36
2019-05-18T18:13:21.887Z,99050.45
2019-05-18T18:15:49.360Z,99043.70
2019-05-18T18:18:16.704Z,99050.27
2019-05-18T18:20:44.149Z,99053.05
2019-05-18T18:23:11.632Z,99051.39
2019-05-18T18:25:39.111Z,99059.83
2019-05-18T18:28:06.527Z,99058.22
2019-05-18T18:30:33.921Z,99060.41
2019-05-18T18:33:01.348Z,99061.77
2019-05-18T18:35:28.650Z,99069.38
2019-05-18T18:37:56.110Z,99066.68
2019-05-18T18:40:23.414Z,99064.52
2019-05-18T18:42:50.866Z,99074.25
2019-05-18T18:45:18.344Z,99071.24
2019-05-18T18:47:45.766Z,99074.20
2019-05-18T18:50:13.192Z,99080.33
2019-05-18T18:52:40.732Z,99082.34
2019-05-18T18:55:08.981Z,99078.20
2019-05-18T18:57:41.205Z,99086.27
2019-05-18T19:00:06.784Z,99079.09
2019-05-18T19:02:34.431Z,99087.00
2019-05-18T19:07:23.897Z,99075.91
2019-05-18T19:09:51.293Z,99088.70
2019-05-18T19:12:18.622Z,99096.70
2019-05-18T19:14:45.950Z,98960.67
2019-05-18T19:17:13.494Z,99087.37
2019-05-18T19:19:40.824Z,99091.47
2019-05-18T19:22:08.199Z,99095.77
2019-05-18T19:24:35.613Z,99097.91
2019-05-18T19:27:03.124Z,99101.75
2019-05-18T19:29:30.501Z,99073.17
2019-05-18T19:31:57.803Z,99104.14
2019-05-18T19:34:25.062Z,99103.66
2019-05-18T19:36:52.494Z,99094.06
2019-05-18T19:39:19.768Z,99105.62
2019-05-18T19:41:47.237Z,99105.05
2019-05-18T19:44:14.556Z,99103.17
2019-05-18T19:46:41.892Z,99106.70
2019-05-18T19:49:09.265Z,99103.23
2019-05-18T19:51:36.815Z,99108.88
2019-05-18T19:54:04.182Z,99103.63
2019-05-18T19:56:39.225Z,99110.64
2019-05-18T19:59:00.736Z,99120.72
2019-05-18T20:01:28.078Z,99118.04
2019-05-18T20:03:55.650Z,99128.16
2019-05-18T20:06:23.092Z,99122.86
2019-05-18T20:08:50.367Z,99115.26
2019-05-18T20:11:17.658Z,99121.66
2019-05-18T20:13:45.036Z,99121.27
2019-05-18T20:16:12.282Z,99117.87
2019-05-18T20:18:39.852Z,99119.20
2019-05-18T20:21:07.226Z,99121.64
2019-05-18T20:23:34.602Z,99122.66
2019-05-18T20:26:01.938Z,99093.41
2019-05-18T20:28:29.322Z,99122.56
2019-05-18T20:30:56.716Z,99127.89
2019-05-18T20:33:24.008Z,99121.95
2019-05-18T20:35:51.308Z,99124.19
2019-05-18T20:38:18.821Z,99101.19
2019-05-18T20:40:46.163Z,99126.71
2019-05-18T20:43:13.484Z,99126.28
2019-05-18T20:45:40.805Z,99129.90
2019-05-18T20:48:08.092Z,99126.61
2019-05-18T20:50:35.366Z,99128.88
2019-05-18T20:53:02.752Z,99125.20
2019-05-18T20:55:30.180Z,99132.42
2019-05-18T20:57:57.689Z,99139.70
2019-05-18T21:00:25.052Z,99133.76
2019-05-18T21:02:52.541Z,99134.80
2019-05-18T21:05:19.935Z,99136.84
2019-05-18T21:07:47.259Z,99138.61
2019-05-18T21:10:14.765Z,99133.27
2019-05-18T21:12:42.086Z,99128.25
2019-05-18T21:15:10.055Z,99131.95
2019-05-18T21:17:38.568Z,99136.74
2019-05-18T21:20:07.078Z,99134.67
2019-05-18T21:22:34.372Z,99134.66
2019-05-18T21:25:01.827Z,99131.99
2019-05-18T21:27:29.322Z,99136.07
2019-05-18T21:29:56.596Z,99143.75
2019-05-18T21:32:23.888Z,99141.67
2019-05-18T21:34:51.174Z,99141.25
2019-05-18T21:37:18.428Z,99139.53
2019-05-18T21:39:46.700Z,99135.43
2019-05-18T21:42:14.945Z,99140.03
2019-05-18T21:44:42.225Z,99144.62
2019-05-18T21:47:09.516Z,99138.06
2019-05-18T21:49:36.802Z,99144.98
2019-05-18T21:52:04.072Z,99127.77
2019-05-18T21:54:31.330Z,99104.11
2019-05-18T21:56:58.610Z,99129.42
2019-05-18T21:59:25.833Z,99130.03
2019-05-18T22:01:53.228Z,99135.93
2019-05-18T22:04:20.491Z,99139.81
2019-05-18T22:06:47.783Z,99147.56
2019-05-18T22:09:15.036Z,99148.33
2019-05-18T22:11:42.447Z,99141.47
2019-05-18T22:14:09.672Z,99139.30
2019-05-18T22:16:36.987Z,99136.17
2019-05-18T22:19:04.282Z,99132.46
2019-05-18T22:21:31.668Z,99130.84
2019-05-18T22:23:59.926Z,99131.08
2019-05-18T22:26:27.383Z,99133.36
2019-05-18T22:28:54.780Z,99126.22
2019-05-18T22:31:22.362Z,99131.20
2019-05-18T22:33:49.602Z,99132.53
2019-05-18T22:36:16.930Z,99128.25
2019-05-18T22:38:44.219Z,99128.27
2019-05-18T22:41:11.485Z,99133.56
2019-05-18T22:43:38.868Z,99128.27
2019-05-18T22:46:06.206Z,99125.44
2019-05-18T22:48:41.372Z,99129.85
2019-05-18T22:51:02.738Z,99132.23
2019-05-18T22:53:30.090Z,99127.48
2019-05-18T22:55:57.347Z,99125.48
2019-05-18T22:58:25.584Z,99122.15
2019-05-18T23:00:53.890Z,99123.66
2019-05-18T23:03:22.365Z,99125.88
2019-05-18T23:05:49.899Z,99124.22
2019-05-18T23:08:17.316Z,99127.44
2019-05-18T23:10:44.607Z,99125.10
2019-05-18T23:13:12.083Z,99123.00
2019-05-18T23:15:39.412Z,99123.53
2019-05-18T23:18:06.704Z,99086.50
2019-05-18T23:20:34.102Z,99121.80
2019-05-18T23:23:01.718Z,99114.36
2019-05-18T23:25:29.087Z,99109.75
2019-05-18T23:27:56.484Z,99106.06
2019-05-18T23:30:23.898Z,99104.30
2019-05-18T23:32:51.279Z,99104.17
2019-05-18T23:35:18.533Z,99097.36
2019-05-18T23:37:46.063Z,99098.06
2019-05-18T23:40:14.334Z,99096.69
2019-05-18T23:42:41.751Z,99090.16
2019-05-18T23:45:09.253Z,99090.66
2019-05-18T23:47:36.545Z,99094.52
2019-05-18T23:50:04.601Z,99090.55
2019-05-18T23:52:31.955Z,99095.88
2019-05-18T23:54:59.231Z,99097.74
2019-05-18T23:57:26.712Z,99098.12
2019-05-18T23:59:54.022Z,99097.65
